METAR AND TAF INFORMATION
METAR FOR NZWN
NZWN 260230Z AUTO 35016KT 9999 FEW031/// 21/13 Q1009
NZWN 260200Z AUTO 35017KT 9999 FEW028/// 21/13 Q1009
NZWN 260130Z AUTO 36017KT 9999 FEW029/// SCT040/// 22/13 Q1009
NZWN 260100Z AUTO 35016KT 9999 SCT034/// BKN041/// 21/13 Q1010
NZWN 260030Z AUTO 36016KT 9999 SCT033/// 21/12 Q1010
NZWN 260000Z AUTO 36015KT 9999 FEW035/// 22/12 Q1010
NZWN 252330Z AUTO 36016KT 9999 NCD 21/14 Q1010

TAF NZWN 260205Z 2603/2706 36015KT 9999 BKN030
BECMG 2604/2606 36015G25KT
BECMG 2614/2616 35010KT

 AIRPORT MAP

 RUNWAY INFORMATION
Runway 16 Runway length 6352 ft Runway width 148 ft
Runway elevation 41 ft Runway displaced threshold 210 ft Runway heading 183
Runway 34 Runway length 6352 ft Runway width 148 ft
Runway elevation 23 ft Runway displaced threshold 210 ft Runway heading 3

 AIRPORT FREQUENCIES
Type APP Name APP Frequency 122.3 MHZ
Type ATIS Name ATIS Frequency 126.9 MHZ
Type GND Name GND Frequency 121.9 MHZ
Type TWR Name TWR Frequency 118.8 MHZ

 AIRPORT NEAR NAVIGATION AIDS
Type NDB Name Newlands Frequency 358 KHZ
Type NDB Name Titahi Bay Frequency 234 KHZ
Type VOR-DME Name Wellington Frequency 112300 KHZ
Type NDB Name Wellington Frequency 298 KHZ

-